createdAt,value
2018-01-05T00:00:22.658Z,21.30
2018-01-05T00:00:54.281Z,21.28
2018-01-05T00:01:25.907Z,21.28
2018-01-05T00:01:57.534Z,21.27
2018-01-05T00:02:29.162Z,21.28
2018-01-05T00:03:00.790Z,21.26
2018-01-05T00:03:32.414Z,21.28
2018-01-05T00:04:04.038Z,21.29
2018-01-05T00:04:35.662Z,21.27
2018-01-05T00:05:07.346Z,21.29
2018-01-05T00:05:38.970Z,21.29
2018-01-05T00:06:10.594Z,21.30
2018-01-05T00:06:43.246Z,21.29
2018-01-05T00:07:14.874Z,21.28
2018-01-05T00:07:46.502Z,21.29
2018-01-05T00:08:18.121Z,21.30
2018-01-05T00:08:49.755Z,21.30
2018-01-05T00:09:21.386Z,21.31
2018-01-05T00:09:53.013Z,21.32
2018-01-05T00:10:24.678Z,21.30
2018-01-05T00:10:56.306Z,21.30
2018-01-05T00:11:27.938Z,21.31
2018-01-05T00:11:59.560Z,21.32
2018-01-05T00:12:31.182Z,21.32
2018-01-05T00:13:02.853Z,21.32
2018-01-05T00:13:34.475Z,21.32
2018-01-05T00:14:06.108Z,21.34
2018-01-05T00:14:37.726Z,21.33
2018-01-05T00:15:09.405Z,21.32
2018-01-05T00:15:41.027Z,21.32
2018-01-05T00:16:12.649Z,21.33
2018-01-05T00:16:44.282Z,21.32
2018-01-05T00:17:15.906Z,21.32
2018-01-05T00:17:47.529Z,21.31
2018-01-05T00:18:19.151Z,21.32
2018-01-05T00:18:50.778Z,21.34
2018-01-05T00:19:22.397Z,21.32
2018-01-05T00:19:54.022Z,21.32
2018-01-05T00:20:25.695Z,21.31
2018-01-05T00:20:57.321Z,21.30
2018-01-05T00:21:28.950Z,21.32
2018-01-05T00:22:00.611Z,21.31
2018-01-05T00:22:32.249Z,21.31
2018-01-05T00:23:03.878Z,21.34
2018-01-05T00:23:35.512Z,21.33
2018-01-05T00:24:07.142Z,21.31
2018-01-05T00:24:38.765Z,21.31
2018-01-05T00:25:10.434Z,21.32
2018-01-05T00:25:42.057Z,21.33
2018-01-05T00:26:13.677Z,21.33
2018-01-05T00:26:45.302Z,21.34
2018-01-05T00:27:16.933Z,21.34
2018-01-05T00:27:48.555Z,21.33
2018-01-05T00:28:20.178Z,21.35
2018-01-05T00:28:51.798Z,21.35
2018-01-05T00:29:23.418Z,21.35
2018-01-05T00:29:55.038Z,21.35
2018-01-05T00:30:26.666Z,21.35
2018-01-05T00:30:58.294Z,21.34
2018-01-05T00:31:29.917Z,21.34
2018-01-05T00:32:01.546Z,21.35
2018-01-05T00:32:33.174Z,21.34
2018-01-05T00:33:04.794Z,21.35
2018-01-05T00:33:36.413Z,21.34
2018-01-05T00:34:08.034Z,21.35
2018-01-05T00:34:39.657Z,21.34
2018-01-05T00:35:11.282Z,21.32
2018-01-05T00:35:42.957Z,21.32
2018-01-05T00:36:14.710Z,21.32
2018-01-05T00:36:46.330Z,21.33
2018-01-05T00:37:17.949Z,21.33
2018-01-05T00:37:49.570Z,21.32
2018-01-05T00:38:21.190Z,21.32
2018-01-05T00:38:52.818Z,21.32
2018-01-05T00:39:24.450Z,21.32
2018-01-05T00:39:56.078Z,21.32
2018-01-05T00:40:27.706Z,21.32
2018-01-05T00:40:59.373Z,21.34
2018-01-05T00:41:31.006Z,21.33
2018-01-05T00:42:02.630Z,21.33
2018-01-05T00:42:34.250Z,21.32
2018-01-05T00:43:05.871Z,21.33
2018-01-05T00:43:37.493Z,21.31
2018-01-05T00:44:09.118Z,21.29
2018-01-05T00:44:40.741Z,21.22
2018-01-05T00:45:12.362Z,21.31
2018-01-05T00:45:44.035Z,21.32
2018-01-05T00:46:15.654Z,21.31
2018-01-05T00:46:47.274Z,21.32
2018-01-05T00:47:18.898Z,21.32
2018-01-05T00:47:50.518Z,21.31
2018-01-05T00:48:22.142Z,21.15
2018-01-05T00:48:53.770Z,21.28
2018-01-05T00:49:25.398Z,21.27
2018-01-05T00:49:57.031Z,21.28
2018-01-05T00:50:28.658Z,21.27
2018-01-05T00:51:00.334Z,21.26
2018-01-05T00:51:31.955Z,21.27
2018-01-05T00:52:03.578Z,21.25
2018-01-05T00:52:35.206Z,21.25
2018-01-05T00:53:06.834Z,21.23
2018-01-05T00:53:38.466Z,21.22
2018-01-05T00:54:10.085Z,21.25
2018-01-05T00:54:41.706Z,21.27
2018-01-05T00:55:13.334Z,21.28
2018-01-05T00:55:44.958Z,21.32
2018-01-05T00:56:16.621Z,21.33
2018-01-05T00:56:48.242Z,21.33
2018-01-05T00:57:19.866Z,21.34
2018-01-05T00:57:51.494Z,21.33
2018-01-05T00:58:23.117Z,21.31
2018-01-05T00:58:54.738Z,21.29
2018-01-05T00:59:26.362Z,21.28
2018-01-05T00:59:57.982Z,21.27
2018-01-05T01:00:29.608Z,21.28
2018-01-05T01:01:01.230Z,21.28
2018-01-05T01:01:32.857Z,21.32
2018-01-05T01:02:04.531Z,21.32
2018-01-05T01:02:36.159Z,21.31
2018-01-05T01:03:07.778Z,21.34
2018-01-05T01:03:39.406Z,21.36
2018-01-05T01:04:11.070Z,21.35
2018-01-05T01:04:42.694Z,21.34
2018-01-05T01:05:14.365Z,21.34
2018-01-05T01:05:45.998Z,21.33
2018-01-05T01:06:17.638Z,21.33
2018-01-05T01:06:49.261Z,21.33
2018-01-05T01:07:20.890Z,21.32
2018-01-05T01:07:52.547Z,21.31
2018-01-05T01:08:24.214Z,21.30
2018-01-05T01:08:55.850Z,21.31
2018-01-05T01:09:27.474Z,21.30
2018-01-05T01:09:59.093Z,21.30
2018-01-05T01:10:30.765Z,21.27
2018-01-05T01:11:02.386Z,21.28
2018-01-05T01:11:34.008Z,21.27
2018-01-05T01:12:05.634Z,21.28
2018-01-05T01:12:37.258Z,21.26
2018-01-05T01:13:08.889Z,21.25
2018-01-05T01:13:40.517Z,21.27
2018-01-05T01:14:12.145Z,21.26
2018-01-05T01:14:43.765Z,21.25
2018-01-05T01:15:15.434Z,21.27
2018-01-05T01:15:47.054Z,21.28
2018-01-05T01:16:18.680Z,21.28
2018-01-05T01:16:50.306Z,21.25
2018-01-05T01:17:21.934Z,21.26
2018-01-05T01:17:53.557Z,21.28
2018-01-05T01:18:25.195Z,21.12
2018-01-05T01:18:56.819Z,21.25
2018-01-05T01:19:28.481Z,21.25
2018-01-05T01:20:00.102Z,21.26
2018-01-05T01:20:31.722Z,21.23
2018-01-05T01:21:03.350Z,21.25
2018-01-05T01:21:34.978Z,21.25
2018-01-05T01:22:06.606Z,21.23
2018-01-05T01:22:38.233Z,21.24
2018-01-05T01:23:09.858Z,21.23
2018-01-05T01:23:41.486Z,21.21
2018-01-05T01:24:13.114Z,21.21
2018-01-05T01:24:44.733Z,21.22
2018-01-05T01:25:16.353Z,21.20
2018-01-05T01:25:47.978Z,21.21
2018-01-05T01:26:19.672Z,21.19
2018-01-05T01:26:51.298Z,21.20
2018-01-05T01:27:22.918Z,21.21
2018-01-05T01:27:54.550Z,21.21
2018-01-05T01:28:26.226Z,21.21
2018-01-05T01:28:57.858Z,21.22
2018-01-05T01:29:29.482Z,21.21
2018-01-05T01:30:01.112Z,21.21
2018-01-05T01:30:32.744Z,21.23
2018-01-05T01:31:04.366Z,21.24
2018-01-05T01:31:35.985Z,21.22
2018-01-05T01:32:07.612Z,21.22
2018-01-05T01:32:39.238Z,21.21
2018-01-05T01:33:10.870Z,21.20
2018-01-05T01:33:42.538Z,21.21
2018-01-05T01:34:14.157Z,21.22
2018-01-05T01:34:45.790Z,21.21
2018-01-05T01:35:17.413Z,21.20
2018-01-05T01:35:49.038Z,21.19
2018-01-05T01:36:20.662Z,21.21
2018-01-05T01:36:52.287Z,21.21
2018-01-05T01:37:23.914Z,21.21
2018-01-05T01:37:55.586Z,21.20
2018-01-05T01:38:27.210Z,21.22
2018-01-05T01:38:58.834Z,21.21
2018-01-05T01:39:30.455Z,21.22
2018-01-05T01:40:02.118Z,21.20
2018-01-05T01:40:33.738Z,21.20
2018-01-05T01:41:05.370Z,21.21
2018-01-05T01:41:36.989Z,21.22
2018-01-05T01:42:08.618Z,21.22
2018-01-05T01:42:40.238Z,21.22
2018-01-05T01:43:11.862Z,21.23
2018-01-05T01:43:43.494Z,21.23
2018-01-05T01:44:15.114Z,21.22
2018-01-05T01:44:46.733Z,21.20
2018-01-05T01:45:18.406Z,21.22
2018-01-05T01:45:50.030Z,21.23
2018-01-05T01:46:21.658Z,21.23
2018-01-05T01:46:53.288Z,21.20
2018-01-05T01:47:24.914Z,21.21
2018-01-05T01:47:56.546Z,21.22
2018-01-05T01:48:28.222Z,21.21
2018-01-05T01:48:59.845Z,21.20
2018-01-05T01:49:31.475Z,21.20
2018-01-05T01:50:03.098Z,21.20
2018-01-05T01:50:34.717Z,21.21
2018-01-05T01:51:06.338Z,21.20
2018-01-05T01:51:37.962Z,21.21
2018-01-05T01:52:09.590Z,21.13
2018-01-05T01:52:41.253Z,21.21
2018-01-05T01:53:12.879Z,21.22
2018-01-05T01:53:44.541Z,21.22
2018-01-05T01:54:16.165Z,21.13
2018-01-05T01:54:47.786Z,21.19
2018-01-05T01:55:19.405Z,21.19
2018-01-05T01:55:51.025Z,21.19
2018-01-05T01:56:22.647Z,21.18
2018-01-05T01:56:54.278Z,21.17
2018-01-05T01:57:25.956Z,21.17
2018-01-05T01:57:57.578Z,21.16
2018-01-05T01:58:29.202Z,21.16
2018-01-05T01:59:00.826Z,21.14
2018-01-05T01:59:32.446Z,21.17
2018-01-05T02:00:04.078Z,21.20
2018-01-05T02:00:35.707Z,21.20
2018-01-05T02:01:07.325Z,21.19
2018-01-05T02:01:38.950Z,21.21
2018-01-05T02:02:10.581Z,21.22
2018-01-05T02:02:42.273Z,21.21
2018-01-05T02:03:13.898Z,21.21
2018-01-05T02:03:45.518Z,21.21
2018-01-05T02:04:17.142Z,21.21
2018-01-05T02:04:48.761Z,21.20
2018-01-05T02:05:20.386Z,21.20
2018-01-05T02:05:52.006Z,21.19
2018-01-05T02:06:23.630Z,21.18
2018-01-05T02:06:55.254Z,21.19
2018-01-05T02:07:26.881Z,21.16
2018-01-05T02:07:58.546Z,21.18
2018-01-05T02:08:30.170Z,21.18
2018-01-05T02:09:01.798Z,21.19
2018-01-05T02:09:33.422Z,21.18
2018-01-05T02:10:05.050Z,21.18
2018-01-05T02:10:36.670Z,21.18
2018-01-05T02:11:08.294Z,21.19
2018-01-05T02:11:39.914Z,21.18
2018-01-05T02:12:11.542Z,21.19
2018-01-05T02:12:43.174Z,21.19
2018-01-05T02:13:14.838Z,21.17
2018-01-05T02:13:46.458Z,21.19
2018-01-05T02:14:18.078Z,21.18
2018-01-05T02:14:49.697Z,21.19
2018-01-05T02:15:21.319Z,21.17
2018-01-05T02:15:52.999Z,21.17
2018-01-05T02:16:24.602Z,21.15
2018-01-05T02:16:56.222Z,21.16
2018-01-05T02:17:27.845Z,21.17
2018-01-05T02:17:59.510Z,21.17
2018-01-05T02:18:31.135Z,21.17
2018-01-05T02:19:02.756Z,21.16
2018-01-05T02:19:34.378Z,21.17
2018-01-05T02:20:06.010Z,21.16
2018-01-05T02:20:37.634Z,21.17
2018-01-05T02:21:09.297Z,21.17
2018-01-05T02:21:40.982Z,21.17
2018-01-05T02:22:12.615Z,21.20
2018-01-05T02:22:44.237Z,21.19
2018-01-05T02:23:15.866Z,21.17
2018-01-05T02:23:47.490Z,21.18
2018-01-05T02:24:19.118Z,21.17
2018-01-05T02:24:50.737Z,21.18
2018-01-05T02:25:22.370Z,21.18
2018-01-05T02:25:53.993Z,21.17
2018-01-05T02:26:25.621Z,21.19
2018-01-05T02:26:57.283Z,21.19
2018-01-05T02:27:28.950Z,21.18
2018-01-05T02:28:00.577Z,21.18
2018-01-05T02:28:32.206Z,21.18
2018-01-05T02:29:03.837Z,21.19
2018-01-05T02:29:35.457Z,21.18
2018-01-05T02:30:07.083Z,21.16
2018-01-05T02:30:38.706Z,21.16
2018-01-05T02:31:10.334Z,21.17
2018-01-05T02:31:41.962Z,21.17
2018-01-05T02:32:13.622Z,21.18
2018-01-05T02:32:45.289Z,21.17
2018-01-05T02:33:16.914Z,21.18
2018-01-05T02:33:48.542Z,21.16
2018-01-05T02:34:20.170Z,21.17
2018-01-05T02:34:51.844Z,21.18
2018-01-05T02:35:23.474Z,21.17
2018-01-05T02:35:55.099Z,21.17
2018-01-05T02:36:26.722Z,21.16
2018-01-05T02:36:58.348Z,21.15
2018-01-05T02:37:29.974Z,21.17
2018-01-05T02:38:01.594Z,21.18
2018-01-05T02:38:33.222Z,21.17
2018-01-05T02:39:04.850Z,21.17
2018-01-05T02:39:36.469Z,21.16
2018-01-05T02:40:08.142Z,21.15
2018-01-05T02:40:39.765Z,21.15
2018-01-05T02:41:11.427Z,21.18
2018-01-05T02:41:43.050Z,21.17
2018-01-05T02:42:14.669Z,21.18
2018-01-05T02:42:46.294Z,21.17
2018-01-05T02:43:17.967Z,21.16
2018-01-05T02:43:49.587Z,21.16
2018-01-05T02:44:21.211Z,21.16
2018-01-05T02:44:52.834Z,21.16
2018-01-05T02:45:24.455Z,21.17
2018-01-05T02:45:56.082Z,21.16
2018-01-05T02:46:27.713Z,21.16
2018-01-05T02:46:59.338Z,21.14
2018-01-05T02:47:31.021Z,21.15
2018-01-05T02:48:02.651Z,21.14
2018-01-05T02:48:34.282Z,21.15
2018-01-05T02:49:05.916Z,21.17
2018-01-05T02:49:37.543Z,21.18
2018-01-05T02:50:09.175Z,21.19
2018-01-05T02:50:40.806Z,21.17
2018-01-05T02:51:12.426Z,21.18
2018-01-05T02:51:44.046Z,21.19
2018-01-05T02:52:15.668Z,21.21
2018-01-05T02:52:47.338Z,21.21
2018-01-05T02:53:18.961Z,21.22
2018-01-05T02:53:50.582Z,21.20
2018-01-05T02:54:22.202Z,21.21
2018-01-05T02:54:53.828Z,21.11
2018-01-05T02:55:25.454Z,21.20
2018-01-05T02:55:57.082Z,21.19
2018-01-05T02:56:28.707Z,21.19
2018-01-05T02:57:02.936Z,21.19
2018-01-05T02:57:34.561Z,21.19
2018-01-05T02:58:06.186Z,21.18
2018-01-05T02:58:37.805Z,21.19
2018-01-05T02:59:09.427Z,21.19
2018-01-05T02:59:41.060Z,21.18
2018-01-05T03:00:12.688Z,21.18
2018-01-05T03:00:44.312Z,21.18
2018-01-05T03:01:15.951Z,21.18
2018-01-05T03:01:47.633Z,21.18
2018-01-05T03:02:19.300Z,21.19
2018-01-05T03:02:50.926Z,21.18
2018-01-05T03:03:22.548Z,21.18
2018-01-05T03:03:54.179Z,21.18
2018-01-05T03:04:25.806Z,21.17
2018-01-05T03:04:57.443Z,21.17
2018-01-05T03:05:29.067Z,21.18
2018-01-05T03:06:00.745Z,21.18
2018-01-05T03:06:32.374Z,21.18
2018-01-05T03:07:03.999Z,21.17
2018-01-05T03:07:35.617Z,21.18
2018-01-05T03:08:07.234Z,21.19
2018-01-05T03:08:38.854Z,21.19
2018-01-05T03:09:10.477Z,21.19
2018-01-05T03:09:42.108Z,21.18
2018-01-05T03:10:13.735Z,21.17
2018-01-05T03:10:45.354Z,21.18
2018-01-05T03:11:17.030Z,21.18
2018-01-05T03:11:48.649Z,21.18
2018-01-05T03:12:20.270Z,21.19
2018-01-05T03:12:51.890Z,21.17
2018-01-05T03:13:23.509Z,21.18
2018-01-05T03:13:55.134Z,21.18
2018-01-05T03:14:26.753Z,21.17
2018-01-05T03:14:58.378Z,21.17
2018-01-05T03:15:30.003Z,21.17
2018-01-05T03:16:01.630Z,21.17
2018-01-05T03:16:33.301Z,21.18
2018-01-05T03:17:04.927Z,21.20
2018-01-05T03:17:36.592Z,21.17
2018-01-05T03:18:08.222Z,21.19
2018-01-05T03:18:39.845Z,21.18
2018-01-05T03:19:11.469Z,21.18
2018-01-05T03:19:43.098Z,21.19
2018-01-05T03:20:14.761Z,21.19
2018-01-05T03:20:46.410Z,21.19
2018-01-05T03:21:18.030Z,21.22
2018-01-05T03:21:49.652Z,21.21
2018-01-05T03:22:21.282Z,21.23
2018-01-05T03:22:52.909Z,21.21
2018-01-05T03:23:24.537Z,21.19
2018-01-05T03:23:56.590Z,21.20
2018-01-05T03:24:28.202Z,21.20
2018-01-05T03:24:59.829Z,21.20
2018-01-05T03:25:31.458Z,21.20
2018-01-05T03:26:03.088Z,21.20
2018-01-05T03:26:34.713Z,21.18
2018-01-05T03:27:06.342Z,21.19
2018-01-05T03:27:37.970Z,21.17
2018-01-05T03:28:09.594Z,21.20
2018-01-05T03:28:41.223Z,21.20
2018-01-05T03:29:12.978Z,21.21
2018-01-05T03:29:44.606Z,21.22
2018-01-05T03:30:16.230Z,21.20
2018-01-05T03:30:47.903Z,21.20
2018-01-05T03:31:19.538Z,21.20
2018-01-05T03:31:51.166Z,21.19
2018-01-05T03:32:22.786Z,21.20
2018-01-05T03:32:54.406Z,21.20
2018-01-05T03:33:26.034Z,21.21
2018-01-05T03:33:57.654Z,21.21
2018-01-05T03:34:29.278Z,21.21
2018-01-05T03:35:00.898Z,21.21
2018-01-05T03:35:32.521Z,21.21
2018-01-05T03:36:04.189Z,21.31
2018-01-05T03:36:35.810Z,21.32
2018-01-05T03:37:07.433Z,21.37
2018-01-05T03:37:39.054Z,21.49
2018-01-05T03:38:10.674Z,21.40
2018-01-05T03:38:42.294Z,21.14
2018-01-05T03:39:13.913Z,20.86
2018-01-05T03:39:45.536Z,20.56
2018-01-05T03:40:17.167Z,20.31
2018-01-05T03:40:48.789Z,20.07
2018-01-05T03:41:20.410Z,19.87
2018-01-05T03:41:52.030Z,19.68
2018-01-05T03:42:23.654Z,19.56
2018-01-05T03:42:55.273Z,19.44
2018-01-05T03:43:26.894Z,19.33
2018-01-05T03:43:58.514Z,19.24
2018-01-05T03:44:30.198Z,19.15
2018-01-05T03:45:01.818Z,19.07
2018-01-05T03:45:33.438Z,18.99
2018-01-05T03:46:05.065Z,18.92
2018-01-05T03:46:36.698Z,18.87
2018-01-05T03:47:08.318Z,18.83
2018-01-05T03:47:39.946Z,18.95
2018-01-05T03:48:11.565Z,19.15
2018-01-05T03:48:43.186Z,19.44
2018-01-05T03:49:14.808Z,19.74
2018-01-05T03:49:46.617Z,19.96
2018-01-05T03:50:18.238Z,20.13
2018-01-05T03:50:49.866Z,20.28
2018-01-05T03:51:21.494Z,20.38
2018-01-05T03:51:53.122Z,20.47
2018-01-05T03:52:24.750Z,20.56
2018-01-05T03:52:56.462Z,20.64
2018-01-05T03:53:28.095Z,20.71
2018-01-05T03:53:59.718Z,20.76
2018-01-05T03:54:31.341Z,20.83
2018-01-05T03:55:02.970Z,20.90
2018-01-05T03:55:34.589Z,21.02
2018-01-05T03:56:06.219Z,21.11
2018-01-05T03:56:37.846Z,21.19
2018-01-05T03:57:09.474Z,21.22
2018-01-05T03:57:41.101Z,21.29
2018-01-05T03:58:12.732Z,21.30
2018-01-05T03:58:44.361Z,21.33
2018-01-05T03:59:16.018Z,21.35
2018-01-05T03:59:47.642Z,21.36
2018-01-05T04:00:19.310Z,21.35
2018-01-05T04:00:50.934Z,21.33
2018-01-05T04:01:22.564Z,21.33
2018-01-05T04:01:54.222Z,21.31
2018-01-05T04:02:25.854Z,21.32
2018-01-05T04:02:57.484Z,21.33
2018-01-05T04:03:29.113Z,21.19
2018-01-05T04:04:00.735Z,21.39
2018-01-05T04:04:32.357Z,21.33
2018-01-05T04:05:04.026Z,21.42
2018-01-05T04:05:35.651Z,21.40
2018-01-05T04:06:07.277Z,21.41
2018-01-05T04:06:38.903Z,21.43
2018-01-05T04:07:10.530Z,21.44
2018-01-05T04:07:42.202Z,21.45
2018-01-05T04:08:13.827Z,21.45
2018-01-05T04:08:45.450Z,21.47
2018-01-05T04:09:17.090Z,21.50
2018-01-05T04:09:48.715Z,21.50
2018-01-05T04:10:20.335Z,21.56
2018-01-05T04:10:52.010Z,21.55
2018-01-05T04:11:23.638Z,21.55
2018-01-05T04:11:55.266Z,21.54
2018-01-05T04:12:26.890Z,21.60
2018-01-05T04:12:58.510Z,21.57
2018-01-05T04:13:30.135Z,21.56
2018-01-05T04:14:01.762Z,21.54
2018-01-05T04:14:33.385Z,21.57
2018-01-05T04:15:05.001Z,21.59
2018-01-05T04:15:36.622Z,21.55
2018-01-05T04:16:08.293Z,21.60
2018-01-05T04:16:39.913Z,21.58
2018-01-05T04:17:11.538Z,21.60
2018-01-05T04:17:43.162Z,21.59
2018-01-05T04:18:14.789Z,21.61
2018-01-05T04:18:46.414Z,21.60
2018-01-05T04:19:18.038Z,21.61
2018-01-05T04:19:49.663Z,21.60
2018-01-05T04:20:21.286Z,21.59
2018-01-05T04:20:52.914Z,21.58
2018-01-05T04:21:24.578Z,21.55
2018-01-05T04:21:56.202Z,21.57
2018-01-05T04:22:27.826Z,21.57
2018-01-05T04:22:59.454Z,21.58
2018-01-05T04:23:31.082Z,21.60
2018-01-05T04:24:02.705Z,21.56
2018-01-05T04:24:34.329Z,21.55
2018-01-05T04:25:05.950Z,21.54
2018-01-05T04:25:37.572Z,21.51
2018-01-05T04:26:09.194Z,21.54
2018-01-05T04:26:40.861Z,21.52
2018-01-05T04:27:12.492Z,21.52
2018-01-05T04:27:44.130Z,21.51
2018-01-05T04:28:15.749Z,21.50
2018-01-05T04:28:47.377Z,21.48
2018-01-05T04:29:19.010Z,21.49
2018-01-05T04:29:50.634Z,21.44
2018-01-05T04:30:22.262Z,21.40
2018-01-05T04:30:53.890Z,21.37
2018-01-05T04:31:25.514Z,21.34
2018-01-05T04:31:57.143Z,21.35
2018-01-05T04:32:28.765Z,21.33
2018-01-05T04:33:00.385Z,21.31
2018-01-05T04:33:32.062Z,21.29
2018-01-05T04:34:03.690Z,21.25
2018-01-05T04:34:35.314Z,21.24
2018-01-05T04:35:06.938Z,21.21
2018-01-05T04:35:38.562Z,21.20
2018-01-05T04:36:10.186Z,21.16
2018-01-05T04:36:41.812Z,21.14
2018-01-05T04:37:13.435Z,21.12
2018-01-05T04:37:45.058Z,21.12
2018-01-05T04:38:16.691Z,21.13
2018-01-05T04:38:48.370Z,21.11
2018-01-05T04:39:20.043Z,21.12
2018-01-05T04:39:51.705Z,21.13
2018-01-05T04:40:23.325Z,21.13
2018-01-05T04:40:54.953Z,21.11
2018-01-05T04:41:26.574Z,21.06
2018-01-05T04:41:58.197Z,21.05
2018-01-05T04:42:29.825Z,21.05
2018-01-05T04:43:01.445Z,21.03
2018-01-05T04:43:33.074Z,21.03
2018-01-05T04:44:04.702Z,21.01
2018-01-05T04:44:36.326Z,21.02
2018-01-05T04:45:07.950Z,21.02
2018-01-05T04:45:39.576Z,21.02
2018-01-05T04:46:11.201Z,21.01
2018-01-05T04:46:42.826Z,20.98
2018-01-05T04:47:14.445Z,20.99
2018-01-05T04:47:46.073Z,20.99
2018-01-05T04:48:17.693Z,20.99
2018-01-05T04:48:49.318Z,21.01
2018-01-05T04:49:20.993Z,21.00
2018-01-05T04:49:52.623Z,20.98
2018-01-05T04:50:24.286Z,20.96
2018-01-05T04:50:55.910Z,20.95
2018-01-05T04:51:27.541Z,20.96
2018-01-05T04:51:59.161Z,20.96
2018-01-05T04:52:30.794Z,20.96
2018-01-05T04:53:02.426Z,20.96
2018-01-05T04:53:34.050Z,20.97
2018-01-05T04:54:05.682Z,20.95
2018-01-05T04:54:37.350Z,20.94
2018-01-05T04:55:08.980Z,20.95
2018-01-05T04:55:40.610Z,20.94
2018-01-05T04:56:12.234Z,20.93
2018-01-05T04:56:43.862Z,20.92
2018-01-05T04:57:15.547Z,20.91
2018-01-05T04:57:47.166Z,20.89
2018-01-05T04:58:18.798Z,20.89
2018-01-05T04:58:50.418Z,20.90
2018-01-05T04:59:22.041Z,20.88
2018-01-05T04:59:53.668Z,20.88
2018-01-05T05:00:25.294Z,20.87
2018-01-05T05:00:56.917Z,20.86
2018-01-05T05:01:28.546Z,20.86
2018-01-05T05:02:00.166Z,20.83
2018-01-05T05:02:31.838Z,20.84
2018-01-05T05:03:03.493Z,20.82
2018-01-05T05:03:35.110Z,20.82
2018-01-05T05:04:06.738Z,20.82
2018-01-05T05:04:38.362Z,20.80
2018-01-05T05:05:10.035Z,20.78
2018-01-05T05:05:41.671Z,20.78
2018-01-05T05:06:13.297Z,20.77
2018-01-05T05:06:44.928Z,20.77
2018-01-05T05:07:16.587Z,20.75
2018-01-05T05:07:48.208Z,20.74
2018-01-05T05:08:19.838Z,20.73
2018-01-05T05:08:51.458Z,20.72
2018-01-05T05:09:23.126Z,20.72
2018-01-05T05:09:54.751Z,20.70
2018-01-05T05:10:26.382Z,20.69
2018-01-05T05:10:58.002Z,20.68
2018-01-05T05:11:29.623Z,20.67
2018-01-05T05:12:01.246Z,20.65
2018-01-05T05:12:32.931Z,20.65
2018-01-05T05:13:04.557Z,20.64
2018-01-05T05:13:36.185Z,20.64
2018-01-05T05:14:07.809Z,20.64
2018-01-05T05:14:39.434Z,20.62
2018-01-05T05:15:11.058Z,20.61
2018-01-05T05:15:42.685Z,20.61
2018-01-05T05:16:14.314Z,20.60
2018-01-05T05:16:45.934Z,20.59
2018-01-05T05:17:17.566Z,20.58
2018-01-05T05:17:49.234Z,20.55
2018-01-05T05:18:20.862Z,20.55
2018-01-05T05:18:52.486Z,20.55
2018-01-05T05:19:24.110Z,20.55
2018-01-05T05:19:55.730Z,20.54
2018-01-05T05:20:27.350Z,20.52
2018-01-05T05:20:58.972Z,20.52
2018-01-05T05:21:30.598Z,20.51
2018-01-05T05:22:02.226Z,20.50
2018-01-05T05:22:33.894Z,20.49
2018-01-05T05:23:05.518Z,20.49
2018-01-05T05:23:37.145Z,20.48
2018-01-05T05:24:08.818Z,20.47
2018-01-05T05:24:40.450Z,20.47
2018-01-05T05:25:12.074Z,20.47
2018-01-05T05:25:43.700Z,20.46
2018-01-05T05:26:15.333Z,20.46
2018-01-05T05:26:46.954Z,20.46
2018-01-05T05:27:18.574Z,20.46
2018-01-05T05:27:50.198Z,20.46
2018-01-05T05:28:21.817Z,20.46
2018-01-05T05:28:53.447Z,20.46
2018-01-05T05:29:25.110Z,20.47
2018-01-05T05:29:56.734Z,20.47
2018-01-05T05:30:28.363Z,20.47
2018-01-05T05:30:59.985Z,20.47
2018-01-05T05:31:31.605Z,20.50
2018-01-05T05:32:03.230Z,20.49
2018-01-05T05:32:34.858Z,20.51
2018-01-05T05:33:06.530Z,20.51
2018-01-05T05:33:38.155Z,20.51
2018-01-05T05:34:09.782Z,20.52
2018-01-05T05:34:41.406Z,20.54
2018-01-05T05:35:13.040Z,20.54
2018-01-05T05:35:44.710Z,20.55
2018-01-05T05:36:16.335Z,20.55
2018-01-05T05:36:47.962Z,20.56
2018-01-05T05:37:19.590Z,20.56
2018-01-05T05:37:51.214Z,20.55
2018-01-05T05:38:22.834Z,20.56
2018-01-05T05:38:54.470Z,20.56
2018-01-05T05:39:26.150Z,20.59
2018-01-05T05:39:57.773Z,20.62
2018-01-05T05:40:29.397Z,20.62
2018-01-05T05:41:01.022Z,20.55
2018-01-05T05:41:32.650Z,20.66
2018-01-05T05:42:04.283Z,20.65
2018-01-05T05:42:35.915Z,20.66
2018-01-05T05:43:07.546Z,20.68
2018-01-05T05:43:39.170Z,20.68
2018-01-05T05:44:10.794Z,20.68
2018-01-05T05:44:42.466Z,20.67
2018-01-05T05:45:14.091Z,20.68
2018-01-05T05:45:45.719Z,20.68
2018-01-05T05:46:17.353Z,20.71
2018-01-05T05:46:48.973Z,20.70
2018-01-05T05:47:20.599Z,20.72
2018-01-05T05:47:52.237Z,20.73
2018-01-05T05:48:23.870Z,20.75
2018-01-05T05:48:55.498Z,20.76
2018-01-05T05:49:27.129Z,20.76
2018-01-05T05:49:58.809Z,20.78
2018-01-05T05:50:30.433Z,20.79
2018-01-05T05:51:02.058Z,20.81
2018-01-05T05:51:33.681Z,20.81
2018-01-05T05:52:05.302Z,20.84
2018-01-05T05:52:36.938Z,20.85
2018-01-05T05:53:08.562Z,20.84
2018-01-05T05:53:40.186Z,20.85
2018-01-05T05:54:11.809Z,20.86
2018-01-05T05:54:43.439Z,20.86
2018-01-05T05:55:15.115Z,20.86
2018-01-05T05:55:46.755Z,20.89
2018-01-05T05:56:18.397Z,20.93
2018-01-05T05:56:50.022Z,20.98
2018-01-05T05:57:21.654Z,21.01
2018-01-05T05:57:53.279Z,21.04
2018-01-05T05:58:24.950Z,21.05
2018-01-05T05:58:56.578Z,21.04
2018-01-05T05:59:28.210Z,21.05
2018-01-05T05:59:59.838Z,21.04
2018-01-05T06:00:31.588Z,21.04
2018-01-05T06:01:03.234Z,21.05
2018-01-05T06:01:34.902Z,21.04
2018-01-05T06:02:06.529Z,21.08
2018-01-05T06:02:38.158Z,21.13
2018-01-05T06:03:09.780Z,21.13
2018-01-05T06:03:41.419Z,21.13
2018-01-05T06:04:13.046Z,21.13
2018-01-05T06:04:44.676Z,21.13
2018-01-05T06:05:16.346Z,21.13
2018-01-05T06:05:47.966Z,21.15
2018-01-05T06:06:19.594Z,21.14
2018-01-05T06:06:51.221Z,21.14
2018-01-05T06:07:22.845Z,21.12
2018-01-05T06:07:54.475Z,21.11
2018-01-05T06:08:26.114Z,21.13
2018-01-05T06:08:57.742Z,21.11
2018-01-05T06:09:29.365Z,21.11
2018-01-05T06:10:00.996Z,21.12
2018-01-05T06:10:32.621Z,21.12
2018-01-05T06:11:04.254Z,21.07
2018-01-05T06:11:35.900Z,21.06
2018-01-05T06:12:07.543Z,21.04
2018-01-05T06:12:39.178Z,21.02
2018-01-05T06:13:10.798Z,21.01
2018-01-05T06:13:42.430Z,21.01
2018-01-05T06:14:14.050Z,20.99
2018-01-05T06:14:45.721Z,20.98
2018-01-05T06:15:17.349Z,20.98
2018-01-05T06:15:48.966Z,20.96
2018-01-05T06:16:20.589Z,20.93
2018-01-05T06:16:52.210Z,20.93
2018-01-05T06:17:23.829Z,20.92
2018-01-05T06:17:55.451Z,20.91
2018-01-05T06:18:27.069Z,20.92
2018-01-05T06:18:58.694Z,20.92
2018-01-05T06:19:30.322Z,20.93
2018-01-05T06:20:02.012Z,20.90
2018-01-05T06:20:33.633Z,20.93
2018-01-05T06:21:05.258Z,20.93
2018-01-05T06:21:36.890Z,20.88
2018-01-05T06:22:08.688Z,20.90
2018-01-05T06:22:40.314Z,20.88
2018-01-05T06:23:11.990Z,20.88
2018-01-05T06:23:43.610Z,20.88
2018-01-05T06:24:15.238Z,20.79
2018-01-05T06:24:46.866Z,20.89
2018-01-05T06:25:18.489Z,20.88
2018-01-05T06:25:50.114Z,20.87
2018-01-05T06:26:21.735Z,20.88
2018-01-05T06:26:53.363Z,20.89
2018-01-05T06:27:24.997Z,20.87
2018-01-05T06:27:56.666Z,20.86
2018-01-05T06:28:28.289Z,20.84
2018-01-05T06:28:59.915Z,20.84
2018-01-05T06:29:31.542Z,20.81
2018-01-05T06:30:03.230Z,20.82
2018-01-05T06:30:34.833Z,20.80
2018-01-05T06:31:06.453Z,20.80
2018-01-05T06:31:38.117Z,20.79
2018-01-05T06:32:09.741Z,20.68
2018-01-05T06:32:41.362Z,20.78
2018-01-05T06:33:12.990Z,20.77
2018-01-05T06:33:44.646Z,20.77
2018-01-05T06:34:16.274Z,20.77
2018-01-05T06:34:47.895Z,20.77
2018-01-05T06:35:19.566Z,20.79
2018-01-05T06:35:51.186Z,20.77
2018-01-05T06:36:22.812Z,20.77
2018-01-05T06:36:54.434Z,20.76
2018-01-05T06:37:26.058Z,20.77
2018-01-05T06:37:57.678Z,20.76
2018-01-05T06:38:29.297Z,20.75
2018-01-05T06:39:00.926Z,20.75
2018-01-05T06:39:32.551Z,20.73
2018-01-05T06:40:04.178Z,20.73
2018-01-05T06:40:35.841Z,20.72
2018-01-05T06:41:07.466Z,20.72
2018-01-05T06:41:39.087Z,20.68
2018-01-05T06:42:10.715Z,20.66
2018-01-05T06:42:42.370Z,20.70
2018-01-05T06:43:13.993Z,20.71
2018-01-05T06:43:45.622Z,20.72
2018-01-05T06:44:17.241Z,20.72
2018-01-05T06:44:48.866Z,20.71
2018-01-05T06:45:20.494Z,20.70
2018-01-05T06:45:52.166Z,20.68
2018-01-05T06:46:23.787Z,20.70
2018-01-05T06:46:55.406Z,20.68
2018-01-05T06:47:27.030Z,20.67